Time;durP1;ratioP1;P1;durP2;ratioP2;P2;SDS_P1;SDS_P2;PMS_P1;PMS_P2;Temp;Humidity;BMP_temperature;BMP_pressure;BME280_temperature;BME280_humidity;BME280_pressure;Samples;Min_cycle;Max_cycle;Signal;HPM_P1;HPM_P2
2022/04/21 00:00:41;;;;;;;6.65;4.07;;;;;;;8.17;62.78;99359.44;12207513;19;20024;-84
2022/04/21 00:04:42;;;;;;;6.30;3.50;;;;;;;8.09;63.51;99359.81;12187281;19;20010;-82
2022/04/21 00:08:44;;;;;;;6.97;3.20;;;;;;;8.04;64.38;99357.84;12199197;19;20014;-82
2022/04/21 00:12:46;;;;;;;7.30;4.40;;;;;;;7.98;63.20;99354.16;12208302;19;20011;-83
2022/04/21 00:16:47;;;;;;;4.38;3.45;;;;;;;7.92;64.05;99359.78;12184621;19;20006;-82
2022/04/21 00:20:49;;;;;;;6.57;3.10;;;;;;;7.89;64.49;99355.63;12204287;19;20007;-82
2022/04/21 00:24:51;;;;;;;5.10;3.40;;;;;;;7.87;64.69;99359.69;12208311;19;20014;-82
2022/04/21 00:28:52;;;;;;;6.65;3.53;;;;;;;7.81;65.47;99356.00;12184288;19;20014;-83
2022/04/21 00:32:54;;;;;;;7.25;3.92;;;;;;;7.76;65.36;99354.00;12209752;19;20463;-83
2022/04/21 00:36:59;;;;;;;4.60;3.67;;;;;;;7.71;65.80;99345.66;12210088;19;20014;-81
2022/04/21 00:41:00;;;;;;;5.38;3.47;;;;;;;7.66;65.73;99351.03;12193255;19;20010;-82
2022/04/21 00:45:09;;;;;;;7.03;3.17;;;;;;;7.57;66.64;99344.25;12209858;19;20023;-82
2022/04/21 00:49:11;;;;;;;7.13;3.60;;;;;;;7.52;67.48;99339.50;12215968;19;20372;-83
2022/04/21 00:53:13;;;;;;;6.60;3.78;;;;;;;7.44;67.74;99344.53;12193228;19;20023;-82
2022/04/21 00:57:15;;;;;;;5.65;3.80;;;;;;;7.33;68.49;99343.47;12212867;19;20018;-82
2022/04/21 01:05:39;;;;;;;5.10;3.40;;;;;;;7.20;69.41;99346.47;12211446;19;20074;-82
2022/04/21 01:09:41;;;;;;;5.80;3.70;;;;;;;7.12;68.88;99349.56;12215350;19;20043;-82
2022/04/21 01:13:43;;;;;;;6.10;3.40;;;;;;;7.02;69.51;99342.75;12189413;19;20007;-82
2022/04/21 01:17:45;;;;;;;12.07;4.07;;;;;;;6.98;69.55;99338.81;12209680;19;20011;-83
2022/04/21 01:21:48;;;;;;;7.03;4.05;;;;;;;6.95;70.46;99343.94;12218264;19;20015;-82
2022/04/21 01:25:49;;;;;;;4.67;3.40;;;;;;;6.92;72.19;99341.69;12192732;19;20018;-83
2022/04/21 01:29:51;;;;;;;5.88;3.88;;;;;;;6.89;71.31;99342.16;12216304;19;20271;-83
2022/04/21 01:33:53;;;;;;;5.53;3.88;;;;;;;6.85;70.95;99336.31;12219507;19;20046;-82
2022/04/21 01:42:16;;;;;;;6.82;3.97;;;;;;;6.79;72.01;99332.63;12222116;19;20030;-82
2022/04/21 01:46:18;;;;;;;5.40;3.83;;;;;;;6.81;71.30;99327.75;12203989;19;20011;-82
2022/04/21 01:50:19;;;;;;;7.63;5.05;;;;;;;6.81;71.69;99324.16;12222570;19;20010;-82
2022/04/21 01:54:23;;;;;;;8.02;4.25;;;;;;;6.78;71.32;99324.63;12221819;19;20007;-82
2022/04/21 01:58:25;;;;;;;7.65;4.63;;;;;;;6.73;72.39;99325.38;12190597;19;20013;-82
2022/04/21 02:02:26;;;;;;;6.57;3.72;;;;;;;6.68;73.23;99325.22;12216103;19;20021;-81
2022/04/21 02:06:28;;;;;;;6.45;4.45;;;;;;;6.61;72.95;99322.59;12221754;19;20014;-82
2022/04/21 02:10:30;;;;;;;11.18;4.30;;;;;;;6.57;73.03;99315.09;12192989;19;20022;-82
2022/04/21 02:14:33;;;;;;;7.18;4.20;;;;;;;6.55;73.66;99309.03;12209794;19;20010;-82
2022/04/21 02:18:35;;;;;;;8.60;4.00;;;;;;;6.54;73.28;99318.28;12163012;19;20014;-82
2022/04/21 02:22:37;;;;;;;9.32;4.80;;;;;;;6.51;75.20;99324.25;12218507;19;20000;-82
2022/04/21 02:26:39;;;;;;;9.00;4.32;;;;;;;6.46;75.10;99318.66;12208168;19;20027;-83
2022/04/21 02:30:41;;;;;;;8.93;4.97;;;;;;;6.39;75.20;99327.81;12213889;19;20086;-82
2022/04/21 02:34:44;;;;;;;6.45;4.65;;;;;;;6.34;75.37;99319.47;12184975;19;20119;-82
2022/04/21 02:38:45;;;;;;;8.15;4.53;;;;;;;6.30;75.50;99314.69;12195851;19;20003;-82
2022/04/21 02:42:47;;;;;;;8.88;4.70;;;;;;;6.25;75.67;99318.13;12209812;19;20426;-82
2022/04/21 02:46:49;;;;;;;6.57;4.28;;;;;;;6.24;75.66;99316.44;12184601;19;20017;-83
2022/04/21 02:50:51;;;;;;;7.28;4.10;;;;;;;6.19;76.72;99308.13;12205140;19;20019;-82
2022/04/21 02:59:13;;;;;;;6.05;3.60;;;;;;;6.10;76.81;99304.88;12187859;19;20003;-83
2022/04/21 03:03:15;;;;;;;7.68;4.68;;;;;;;6.07;77.28;99302.63;12212975;19;20508;-82
2022/04/21 03:07:18;;;;;;;6.80;4.40;;;;;;;6.07;77.65;99301.78;12193044;19;20015;-82
2022/04/21 03:11:20;;;;;;;5.55;3.90;;;;;;;6.05;77.55;99303.91;12224883;19;19998;-82
2022/04/21 03:15:22;;;;;;;8.48;4.30;;;;;;;6.03;77.56;99298.66;12208881;19;20590;-82
2022/04/21 03:19:23;;;;;;;5.70;3.58;;;;;;;6.01;77.47;99300.81;12181300;19;20010;-82
2022/04/21 03:27:48;;;;;;;8.73;3.80;;;;;;;6.00;78.28;99295.56;12213850;19;20003;-82
2022/04/21 03:31:50;;;;;;;6.30;4.00;;;;;;;6.00;79.60;99296.41;12193554;19;20035;-83
2022/04/21 03:35:52;;;;;;;7.95;3.97;;;;;;;6.08;78.46;99298.81;12208034;19;20010;-83
2022/04/21 03:39:54;;;;;;;8.55;3.80;;;;;;;6.16;78.86;99300.38;12210389;19;20011;-82
2022/04/21 03:43:56;;;;;;;6.55;4.20;;;;;;;6.20;78.95;99298.00;12185260;19;20014;-83
2022/04/21 03:47:58;;;;;;;9.57;4.18;;;;;;;6.21;78.70;99300.50;12208007;19;20017;-83
2022/04/21 03:52:00;;;;;;;9.60;3.83;;;;;;;6.19;78.61;99305.41;12213222;19;20006;-82
2022/04/21 03:56:01;;;;;;;7.30;4.00;;;;;;;6.18;79.00;99298.22;12179398;19;20006;-83
2022/04/21 04:00:04;;;;;;;7.05;4.10;;;;;;;6.14;79.13;99308.81;12212068;19;20014;-83
2022/04/21 04:04:12;;;;;;;7.47;4.28;;;;;;;6.09;79.66;99308.66;12206049;19;20050;-82
2022/04/21 04:12:37;;;;;;;6.40;4.32;;;;;;;6.07;80.05;99310.81;12213049;19;20100;-83
2022/04/21 04:16:39;;;;;;;7.43;4.03;;;;;;;6.04;80.74;99304.97;12202061;19;20011;-83
2022/04/21 04:20:41;;;;;;;6.93;4.47;;;;;;;6.00;80.34;99301.88;12215434;19;20712;-82
2022/04/21 04:24:46;;;;;;;6.20;4.10;;;;;;;5.99;80.17;99302.13;12222416;19;20015;-82
2022/04/21 04:28:49;;;;;;;7.35;4.20;;;;;;;5.97;80.22;99304.22;12193566;19;20019;-82
2022/04/21 04:32:51;;;;;;;7.18;4.35;;;;;;;5.94;80.53;99303.63;12212040;19;20082;-83
2022/04/21 04:36:52;;;;;;;7.43;4.28;;;;;;;5.96;80.97;99302.56;12200894;19;20031;-83
2022/04/21 04:40:54;;;;;;;6.00;4.15;;;;;;;5.95;80.81;99304.47;12193442;19;20011;-82
2022/04/21 04:49:16;;;;;;;6.82;4.18;;;;;;;5.96;81.62;99297.09;12169632;19;20011;-83
2022/04/21 04:53:18;;;;;;;10.88;5.32;;;;;;;6.00;81.20;99290.94;12217350;19;20010;-82
2022/04/21 04:57:20;;;;;;;6.65;4.15;;;;;;;6.04;81.31;99302.22;12210890;19;20037;-83
2022/04/21 05:01:30;;;;;;;8.73;4.70;;;;;;;6.11;80.92;99309.28;12195961;19;20047;-83
2022/04/21 05:05:32;;;;;;;7.60;4.05;;;;;;;6.23;81.60;99305.75;12207001;19;20006;-85
2022/04/21 05:09:33;;;;;;;8.27;4.38;;;;;;;6.38;81.39;99306.97;12213251;19;20003;-83
2022/04/21 05:13:36;;;;;;;8.87;4.73;;;;;;;6.59;80.91;99296.53;12195493;19;20757;-81
2022/04/21 05:17:41;;;;;;;9.13;4.43;;;;;;;6.76;81.18;99299.41;12210127;19;20338;-83
2022/04/21 05:22:04;;;;;;;7.65;4.90;;;;;;;6.86;80.10;99288.69;12214440;19;20017;-84
2022/04/21 05:26:06;;;;;;;9.70;4.55;;;;;;;6.92;79.98;99297.84;12194573;19;20011;-82
2022/04/21 05:34:31;;;;;;;9.10;4.75;;;;;;;7.02;79.96;99292.59;12186245;19;20085;-83
2022/04/21 05:38:33;;;;;;;7.43;4.15;;;;;;;7.08;79.61;99297.16;12208510;19;20011;-84
2022/04/21 05:42:45;;;;;;;7.53;4.25;;;;;;;7.15;79.34;99303.31;12206757;19;20006;-83
2022/04/21 05:46:47;;;;;;;8.65;4.22;;;;;;;7.21;79.70;99296.88;12191157;19;20015;-83
2022/04/21 05:50:51;;;;;;;12.40;4.72;;;;;;;7.28;79.09;99294.00;12209750;19;20471;-83
2022/04/21 05:54:53;;;;;;;7.57;4.70;;;;;;;7.34;79.34;99304.00;12203412;19;20017;-82
2022/04/21 05:58:54;;;;;;;8.65;4.90;;;;;;;7.43;78.42;99301.72;12185414;19;20011;-83
2022/04/21 06:02:57;;;;;;;7.43;4.47;;;;;;;7.53;78.05;99299.22;12215945;19;20098;-85
2022/04/21 06:06:59;;;;;;;;;;;;;;;7.61;78.27;99306.19;12222292;19;20021;-82
2022/04/21 06:11:01;;;;;;;8.02;4.50;;;;;;;7.71;78.34;99301.78;12199128;19;19918;-84
2022/04/21 06:15:03;;;;;;;6.63;4.50;;;;;;;7.76;78.54;99298.28;12202543;19;20014;-83
2022/04/21 06:19:05;;;;;;;9.13;5.47;;;;;;;7.86;77.62;99300.41;12217962;19;20014;-83
2022/04/21 06:23:07;;;;;;;8.88;5.15;;;;;;;7.99;76.31;99292.69;12205339;19;20259;-83
2022/04/21 06:27:15;;;;;;;8.02;5.20;;;;;;;8.02;75.47;99291.38;12223025;19;20011;-83
2022/04/21 06:31:19;;;;;;;10.02;5.25;;;;;;;8.10;75.32;99287.41;12201545;19;20011;-83
2022/04/21 06:35:21;;;;;;;8.30;5.57;;;;;;;8.19;74.85;99292.25;12205005;19;20366;-84
2022/04/21 06:39:24;;;;;;;7.90;5.60;;;;;;;8.22;74.35;99285.44;12212055;19;20010;-85
2022/04/21 06:48:04;;;;;;;8.77;5.43;;;;;;;8.56;73.32;99280.00;12204919;19;20018;-84
2022/04/21 06:52:06;;;;;;;11.93;5.90;;;;;;;8.68;72.70;99275.25;12218776;19;20021;-85
2022/04/21 06:56:08;;;;;;;13.50;5.45;;;;;;;8.81;72.60;99287.84;12193719;19;20010;-85
2022/04/21 07:00:10;;;;;;;12.38;5.63;;;;;;;8.98;72.23;99287.78;12207731;19;20018;-85
2022/04/21 07:04:13;;;;;;;11.47;5.00;;;;;;;9.42;71.48;99298.84;12207125;19;20014;-83
2022/04/21 07:08:15;;;;;;;9.85;5.57;;;;;;;9.64;69.95;99290.59;12199241;19;21070;-84
2022/04/21 07:12:19;;;;;;;8.20;5.80;;;;;;;9.76;69.69;99299.56;12222771;19;20013;-85
2022/04/21 07:16:21;;;;;;;13.63;5.70;;;;;;;10.03;69.06;99303.19;12186575;19;20014;-84
2022/04/21 07:20:29;;;;;;;8.60;5.22;;;;;;;10.13;68.18;99296.13;12212719;19;20764;-83
2022/04/21 07:24:31;;;;;;;11.50;7.22;;;;;;;10.35;67.41;99291.44;12215560;19;20017;-84
2022/04/21 07:28:35;;;;;;;12.98;6.75;;;;;;;10.48;66.08;99285.47;12189997;19;20012;-83
2022/04/21 07:32:37;;;;;;;10.50;5.40;;;;;;;10.52;66.20;99279.44;12209451;19;20003;-83
2022/04/21 07:36:42;;;;;;;8.85;5.40;;;;;;;10.39;66.10;99284.28;12205325;19;20013;-84
2022/04/21 07:40:47;;;;;;;7.65;4.80;;;;;;;10.26;67.09;99274.53;12187844;19;20007;-85
2022/04/21 07:44:49;;;;;;;10.65;5.72;;;;;;;10.18;66.42;99277.72;12207780;19;20007;-84
2022/04/21 07:53:13;;;;;;;10.10;5.13;;;;;;;10.58;65.60;99281.97;12187571;19;20013;-83
2022/04/21 07:57:15;;;;;;;7.22;4.90;;;;;;;11.04;64.34;99273.22;12198087;19;20131;-84
2022/04/21 08:01:17;;;;;;;6.60;4.73;;;;;;;11.54;63.21;99275.44;12184508;19;20029;-83
2022/04/21 08:05:21;;;;;;;8.77;4.85;;;;;;;12.04;61.77;99273.94;12206125;19;20118;-85
2022/04/21 08:09:23;;;;;;;8.60;4.63;;;;;;;12.16;60.27;99270.94;12209217;19;20006;-84
2022/04/21 08:13:28;;;;;;;8.45;4.88;;;;;;;12.80;59.34;99275.13;12182459;19;20020;-84
2022/04/21 08:17:30;;;;;;;10.68;5.07;;;;;;;13.39;58.05;99268.13;12201662;19;20028;-84
2022/04/21 08:21:32;;;;;;;7.00;4.63;;;;;;;14.12;55.74;99260.03;12202234;19;20040;-84
2022/04/21 08:34:50;;;;;;;11.30;5.25;;;;;;;14.53;51.83;99272.81;12192975;19;20007;-84
2022/04/21 08:38:58;;;;;;;6.72;4.03;;;;;;;14.74;50.77;99268.75;12213673;19;20038;-82
2022/04/21 08:43:00;;;;;;;6.95;3.83;;;;;;;15.19;49.75;99271.38;12209184;19;20007;-83
2022/04/21 08:47:05;;;;;;;6.85;4.35;;;;;;;15.48;48.59;99268.56;12180506;19;20011;-82
2022/04/21 08:51:08;;;;;;;7.22;4.60;;;;;;;15.47;48.02;99266.91;12212541;19;20014;-84
2022/04/21 08:55:11;;;;;;;6.38;4.25;;;;;;;15.17;48.16;99268.91;12201718;19;20007;-83
2022/04/21 08:59:13;;;;;;;7.63;3.72;;;;;;;14.98;48.15;99263.25;12197558;19;20025;-83
2022/04/21 09:03:15;;;;;;;7.18;3.92;;;;;;;15.23;48.14;99250.25;12229136;19;20042;-82
2022/04/21 09:07:20;;;;;;;5.85;3.38;;;;;;;15.19;47.78;99251.94;12205489;19;20349;-84
2022/04/21 09:11:24;;;;;;;5.15;3.58;;;;;;;15.32;48.13;99250.41;12222774;19;20014;-83
2022/04/21 09:15:32;;;;;;;4.65;3.47;;;;;;;15.49;47.10;99239.66;12213463;19;20006;-85
2022/04/21 09:19:34;;;;;;;5.55;3.55;;;;;;;15.92;45.77;99240.53;12190746;19;20014;-84
2022/04/21 09:23:35;;;;;;;6.18;3.70;;;;;;;16.77;45.32;99243.41;12220180;19;20010;-81
2022/04/21 09:27:44;;;;;;;8.55;4.20;;;;;;;16.84;42.96;99243.84;12209039;19;20021;-84
2022/04/21 09:31:51;;;;;;;4.55;3.25;;;;;;;17.15;43.32;99232.97;12199496;19;20028;-79
2022/04/21 09:35:56;;;;;;;6.70;3.65;;;;;;;17.14;43.10;99234.13;12219254;19;20034;-81
2022/04/21 09:40:02;;;;;;;4.00;2.60;;;;;;;17.21;41.65;99228.97;12223478;19;20011;-81
2022/04/21 09:48:36;;;;;;;4.53;2.45;;;;;;;16.45;41.97;99219.16;12215961;19;20027;-83
2022/04/21 09:52:49;;;;;;;5.13;2.92;;;;;;;16.87;41.86;99220.16;12203350;19;20029;-82
2022/04/21 09:56:59;;;;;;;5.25;2.10;;;;;;;16.99;40.59;99206.56;12212969;19;20010;-83
2022/04/21 10:01:00;;;;;;;4.27;2.07;;;;;;;17.11;40.20;99208.88;12212306;19;20369;-83
2022/04/21 10:05:03;;;;;;;6.13;2.50;;;;;;;17.11;38.26;99198.53;12196509;19;20014;-83
2022/04/21 10:09:05;;;;;;;6.22;2.45;;;;;;;16.66;39.70;99194.59;12208255;19;20014;-82
2022/04/21 10:13:07;;;;;;;4.90;3.00;;;;;;;16.59;40.80;99201.38;12211663;19;20019;-83
2022/04/21 10:17:10;;;;;;;5.38;2.83;;;;;;;16.51;41.08;99193.75;12187276;19;20027;-83
2022/04/21 10:21:18;;;;;;;10.40;2.75;;;;;;;16.50;42.19;99191.28;12205060;19;20014;-80
2022/04/21 10:25:32;;;;;;;4.72;2.42;;;;;;;16.81;41.57;99181.28;12190953;19;20487;-82
2022/04/21 10:29:50;;;;;;;5.45;3.22;;;;;;;17.25;41.37;99182.69;12204872;19;20010;-79
2022/04/21 10:33:53;;;;;;;8.27;3.45;;;;;;;17.52;41.56;99179.06;12202269;19;20035;-82
2022/04/21 10:38:13;;;;;;;9.65;4.07;;;;;;;17.16;41.62;99173.38;12183900;19;20026;-81
2022/04/21 10:42:17;;;;;;;5.65;3.55;;;;;;;16.85;42.33;99175.94;12205981;19;20034;-82
2022/04/21 10:46:31;;;;;;;5.63;3.60;;;;;;;16.80;43.04;99157.38;12181000;19;20027;-82
2022/04/21 10:50:35;;;;;;;7.30;3.35;;;;;;;16.85;43.46;99153.69;12211839;19;20022;-82
2022/04/21 10:59:24;;;;;;;7.45;3.60;;;;;;;17.49;42.38;99145.41;12185585;19;20910;-80
2022/04/21 11:03:26;;;;;;;6.67;3.97;;;;;;;17.37;41.95;99137.59;12210048;19;20683;-80
2022/04/21 11:07:58;;;;;;;7.30;4.13;;;;;;;17.91;41.17;99129.47;12201433;19;20010;-81
2022/04/21 11:11:59;;;;;;;5.35;3.25;;;;;;;18.36;41.03;99126.69;12250506;19;20014;-82
2022/04/21 11:16:02;;;;;;;4.43;2.75;;;;;;;18.06;40.03;99117.94;12218015;19;20018;-82
2022/04/21 11:20:25;;;;;;;6.40;3.38;;;;;;;18.29;39.95;99115.13;12199098;19;20010;-82
2022/04/21 11:25:01;;;;;;;5.93;3.97;;;;;;;18.34;39.63;99117.78;12211406;19;20028;-82
2022/04/21 11:29:04;;;;;;;7.05;3.28;;;;;;;18.45;38.90;99094.91;12191572;19;20331;-77
2022/04/21 11:33:10;;;;;;;8.48;4.13;;;;;;;18.67;38.99;99107.16;12213576;19;20011;-79
2022/04/21 11:37:12;;;;;;;6.00;2.60;;;;;;;18.62;39.00;99102.53;12214575;19;20010;-82
2022/04/21 11:41:15;;;;;;;7.05;2.78;;;;;;;18.25;38.70;99098.22;12185170;19;20006;-82
2022/04/21 11:45:22;;;;;;;6.22;2.38;;;;;;;18.85;38.74;99102.50;12205185;19;20018;-82
2022/04/21 11:49:36;;;;;;;7.95;3.20;;;;;;;19.16;37.64;99090.47;12176526;19;20009;-81
2022/04/21 11:53:42;;;;;;;4.45;2.60;;;;;;;19.46;36.63;99089.53;12204033;19;20395;-81
2022/04/21 11:57:44;;;;;;;9.10;3.15;;;;;;;20.77;36.22;99087.47;12217763;19;20018;-80
2022/04/21 12:06:31;;;;;;;6.03;2.78;;;;;;;20.38;35.02;99078.19;12205563;19;20010;-80
2022/04/21 12:10:47;;;;;;;5.90;3.05;;;;;;;20.03;36.60;99069.84;12189090;19;20000;-81
2022/04/21 12:14:49;;;;;;;6.20;2.53;;;;;;;20.06;35.25;99056.38;12222474;19;20011;-78
2022/04/21 12:18:50;;;;;;;5.47;2.20;;;;;;;19.61;36.17;99076.25;12207014;19;20463;-79
2022/04/21 12:22:52;;;;;;;3.30;2.30;;;;;;;19.93;35.97;99064.59;12191047;19;20711;-82
2022/04/21 12:26:54;;;;;;;5.88;2.08;;;;;;;20.23;35.56;99061.94;12202419;19;20007;-83
2022/04/21 12:31:06;;;;;;;4.55;1.63;;;;;;;19.75;35.63;99058.19;12220138;19;20006;-83
2022/04/21 12:35:10;;;;;;;3.55;1.80;;;;;;;20.90;34.59;99043.59;12195451;19;20021;-82
2022/04/21 12:39:12;;;;;;;4.68;2.40;;;;;;;20.87;35.29;99053.50;12227979;19;20015;-83
2022/04/21 12:43:35;;;;;;;3.58;2.10;;;;;;;20.37;35.02;99037.34;12206016;19;20004;-83
2022/04/21 12:47:48;;;;;;;3.50;2.13;;;;;;;19.94;35.50;99043.06;12222526;19;20003;-84
2022/04/21 12:51:49;;;;;;;;;;;;;;;19.57;35.86;99031.34;12222305;19;20014;-85
2022/04/21 12:55:52;;;;;;;6.03;2.40;;;;;;;19.58;36.40;99019.03;12203805;19;19925;-85
2022/04/21 12:59:54;;;;;;;4.72;2.40;;;;;;;19.58;36.51;99011.47;12227416;19;20017;-84
2022/04/21 13:04:01;;;;;;;4.07;2.28;;;;;;;19.70;36.10;99013.63;12228549;19;20014;-80
2022/04/21 13:08:05;;;;;;;6.65;2.05;;;;;;;19.46;36.13;99016.91;12215733;19;20011;-81
2022/04/21 13:12:08;;;;;;;4.75;2.33;;;;;;;18.92;37.43;99009.91;12263726;19;20105;-79
2022/04/21 13:16:10;;;;;;;4.05;2.13;;;;;;;18.93;37.37;99001.22;12266107;19;20006;-81
2022/04/21 13:21:52;;;;;;;2.75;2.05;;;;;;;19.16;37.19;99001.09;12235089;19;20107;-82
2022/04/21 13:24:33;;;;;;;3.17;2.00;;;;;;;19.28;37.18;98993.72;12262181;19;20006;-83
2022/04/21 13:28:35;;;;;;;4.70;1.95;;;;;;;19.10;37.50;98994.84;12231415;19;20018;-80
2022/04/21 13:37:05;;;;;;;5.18;2.60;;;;;;;18.90;37.76;98993.50;12252358;19;19998;-81
2022/04/21 13:41:07;;;;;;;9.68;2.15;;;;;;;19.13;38.06;98991.41;12236537;19;19998;-82
2022/04/21 13:45:08;;;;;;;6.90;2.30;;;;;;;19.46;37.37;98983.38;12254117;19;20011;-81
2022/04/21 13:49:32;;;;;;;4.60;1.80;;;;;;;19.18;36.89;98982.03;12217992;19;20022;-82
2022/04/21 13:53:34;;;;;;;4.00;2.00;;;;;;;19.06;37.94;98982.69;12236929;19;20013;-83
2022/04/21 13:57:37;;;;;;;4.50;2.22;;;;;;;19.21;38.49;98981.38;12225404;19;20015;-81
2022/04/21 14:01:41;;;;;;;6.07;2.72;;;;;;;19.76;37.33;98975.16;12214833;19;20429;-84
2022/04/21 14:05:43;;;;;;;4.28;2.40;;;;;;;19.93;37.02;98966.75;12229637;19;20006;-82
2022/04/21 14:09:45;;;;;;;3.40;2.07;;;;;;;19.98;36.62;98972.13;12224635;19;20018;-84
2022/04/21 14:13:53;;;;;;;5.05;2.15;;;;;;;20.18;36.43;98961.41;12197339;19;20467;-84
2022/04/21 14:17:54;;;;;;;4.25;1.95;;;;;;;20.49;36.65;98967.53;12219229;19;20010;-82
2022/04/21 14:21:56;;;;;;;5.87;2.87;;;;;;;20.88;34.71;98953.50;12227925;19;20045;-83
2022/04/21 14:25:59;;;;;;;5.60;1.60;;;;;;;20.21;34.66;98941.97;12188073;19;20643;-80
2022/04/21 14:30:03;;;;;;;3.42;1.70;;;;;;;20.83;34.27;98946.13;12219960;19;20159;-82
2022/04/21 14:34:05;;;;;;;3.42;1.85;;;;;;;20.58;34.52;98955.50;12238217;19;20018;-83
2022/04/21 14:46:51;;;;;;;4.30;1.88;;;;;;;20.16;34.05;98938.53;12188880;19;20392;-83
2022/04/21 14:51:13;;;;;;;6.23;1.70;;;;;;;19.75;34.86;98948.34;12214019;19;20019;-84
2022/04/21 14:55:19;;;;;;;2.38;1.40;;;;;;;19.64;35.01;98945.06;12183950;19;20054;-83
2022/04/21 14:59:26;;;;;;;2.95;1.27;;;;;;;19.78;35.07;98937.34;12213017;19;20011;-83
2022/04/21 15:03:28;;;;;;;2.55;1.52;;;;;;;20.03;34.32;98927.22;12216392;19;20015;-84
2022/04/21 15:07:31;;;;;;;;;;;;;;;20.04;34.43;98928.84;12186724;19;20017;-84
2022/04/21 15:11:33;;;;;;;3.45;1.10;;;;;;;19.64;34.39;98933.06;12213860;19;19911;-82
2022/04/21 15:15:37;;;;;;;5.70;1.60;;;;;;;19.37;34.72;98935.06;12228473;19;20013;-83
2022/04/21 15:19:43;;;;;;;2.75;1.65;;;;;;;18.97;35.11;98937.19;12201722;19;20021;-84
2022/04/21 15:23:45;;;;;;;9.90;1.80;;;;;;;18.75;35.81;98926.97;12224174;19;20018;-84
2022/04/21 15:27:47;;;;;;;5.65;1.55;;;;;;;18.56;36.40;98922.47;12208303;19;20025;-84
2022/04/21 15:31:49;;;;;;;3.03;1.40;;;;;;;18.71;36.27;98923.16;12186792;19;20023;-83
2022/04/21 15:35:51;;;;;;;4.90;1.77;;;;;;;18.66;36.34;98924.13;12209891;19;20010;-84
2022/04/21 15:39:53;;;;;;;6.35;1.60;;;;;;;18.58;36.51;98922.97;12217174;19;20007;-83
2022/04/21 15:43:56;;;;;;;4.73;1.60;;;;;;;18.38;36.83;98921.59;12192245;19;20077;-84
2022/04/21 15:47:57;;;;;;;4.63;1.50;;;;;;;18.21;37.18;98922.34;12217856;19;20007;-82
2022/04/21 15:51:59;;;;;;;2.63;1.45;;;;;;;18.10;36.71;98931.34;12218132;19;20014;-84
2022/04/21 16:00:22;;;;;;;1.92;1.50;;;;;;;17.53;37.69;98918.03;12239542;19;20018;-82
2022/04/21 16:04:24;;;;;;;6.63;1.63;;;;;;;17.48;38.00;98916.19;12213011;19;20735;-83
2022/04/21 16:08:26;;;;;;;1.40;1.30;;;;;;;17.47;37.78;98916.53;12225509;19;20118;-84
2022/04/21 16:12:30;;;;;;;3.10;1.58;;;;;;;17.33;38.01;98912.97;12226800;19;20027;-83
2022/04/21 16:16:33;;;;;;;2.45;1.40;;;;;;;17.30;38.19;98920.81;12192714;19;20006;-84
2022/04/21 16:20:35;;;;;;;4.85;1.48;;;;;;;17.18;38.24;98914.19;12221580;19;20023;-83
2022/04/21 16:24:38;;;;;;;3.77;1.43;;;;;;;17.10;38.67;98924.09;12226415;19;20712;-84
2022/04/21 16:28:40;;;;;;;4.07;1.20;;;;;;;16.96;39.09;98926.13;12198012;19;20010;-84
2022/04/21 16:32:42;;;;;;;3.37;1.40;;;;;;;16.86;39.45;98924.38;12222525;19;20007;-86
2022/04/21 16:36:44;;;;;;;3.63;1.60;;;;;;;16.77;40.26;98921.50;12216925;19;20028;-84
2022/04/21 16:40:46;;;;;;;3.38;1.83;;;;;;;16.75;40.57;98925.72;12200083;19;20014;-83
2022/04/21 16:44:48;;;;;;;3.45;1.48;;;;;;;16.75;41.06;98923.75;12221726;19;20013;-84
2022/04/21 16:48:53;;;;;;;2.72;1.75;;;;;;;16.61;41.81;98926.56;12209068;19;20018;-85
2022/04/21 16:52:54;;;;;;;3.70;1.95;;;;;;;16.41;42.79;98927.81;12200270;19;20017;-82
2022/04/21 16:56:56;;;;;;;5.70;2.15;;;;;;;16.26;43.19;98927.31;12221629;19;20014;-85
2022/04/21 17:05:27;;;;;;;5.40;2.30;;;;;;;16.01;43.82;98929.47;12192512;19;20042;-85
2022/04/21 17:09:29;;;;;;;8.85;2.28;;;;;;;15.98;44.76;98920.94;12207511;19;20572;-82
2022/04/21 17:13:32;;;;;;;3.90;2.05;;;;;;;15.96;44.47;98926.78;12191090;19;20018;-83
2022/04/21 17:17:34;;;;;;;5.80;2.35;;;;;;;15.97;45.23;98935.94;12215410;19;20011;-83
2022/04/21 17:21:36;;;;;;;4.15;1.90;;;;;;;15.84;44.29;98938.38;12214483;19;20023;-83
2022/04/21 17:25:37;;;;;;;4.47;1.90;;;;;;;15.74;43.97;98941.34;12198713;19;20069;-82
2022/04/21 17:29:39;;;;;;;5.40;1.55;;;;;;;15.64;43.70;98930.38;12220938;19;20014;-84
2022/04/21 17:33:41;;;;;;;3.67;1.80;;;;;;;15.61;43.44;98942.09;12225593;19;20010;-84
2022/04/21 17:37:43;;;;;;;2.83;1.60;;;;;;;15.56;44.12;98948.59;12200560;19;20011;-82
2022/04/21 17:41:44;;;;;;;3.60;1.63;;;;;;;15.47;44.15;98942.06;12243923;19;20014;-82
2022/04/21 17:45:47;;;;;;;3.60;2.42;;;;;;;15.40;44.37;98942.44;12214675;19;20017;-83
2022/04/21 17:49:49;;;;;;;4.68;2.65;;;;;;;15.34;44.30;98945.59;12189438;19;20011;-83
2022/04/21 17:53:52;;;;;;;3.10;1.63;;;;;;;15.25;44.55;98948.25;12217356;19;20010;-82
2022/04/21 17:57:55;;;;;;;5.40;2.25;;;;;;;15.13;45.37;98953.44;12212472;19;20472;-83
2022/04/21 18:01:57;;;;;;;;;;;;;;;14.97;46.73;98956.44;12190347;19;20014;-83
2022/04/21 18:05:59;;;;;;;3.65;1.80;;;;;;;14.87;46.67;98950.19;12210718;19;19918;-83
2022/04/21 18:10:00;;;;;;;4.40;2.10;;;;;;;14.71;47.79;98949.59;12206589;19;20018;-83
2022/04/21 18:14:02;;;;;;;4.15;2.40;;;;;;;14.62;47.73;98948.63;12187223;19;20050;-83
2022/04/21 18:18:04;;;;;;;3.13;1.87;;;;;;;14.54;47.89;98950.09;12201966;19;20010;-84
2022/04/21 18:22:06;;;;;;;4.25;2.40;;;;;;;14.46;48.71;98942.41;12215748;19;20003;-81
2022/04/21 18:26:08;;;;;;;4.07;2.33;;;;;;;14.34;48.97;98935.34;12187885;19;20010;-83
2022/04/21 18:30:10;;;;;;;5.00;2.60;;;;;;;14.26;49.83;98946.25;12211164;19;20018;-84
2022/04/21 18:34:12;;;;;;;3.90;2.40;;;;;;;14.21;50.63;98944.34;12206364;19;20003;-84
2022/04/21 18:38:13;;;;;;;5.72;2.60;;;;;;;14.11;50.45;98945.31;12191630;19;20031;-83
2022/04/21 18:42:16;;;;;;;5.13;2.75;;;;;;;14.05;50.92;98948.44;12213185;19;20006;-83
2022/04/21 18:46:18;;;;;;;4.95;2.92;;;;;;;14.02;51.60;98941.53;12181532;19;20044;-83
2022/04/21 18:50:19;;;;;;;5.25;2.92;;;;;;;14.00;51.47;98948.47;12209623;19;20014;-83
2022/04/21 18:54:22;;;;;;;6.40;3.00;;;;;;;13.99;51.49;98942.13;12203681;19;20014;-82
2022/04/21 18:58:24;;;;;;;9.00;3.10;;;;;;;13.95;51.54;98935.53;12183115;19;20011;-82
2022/04/21 19:02:26;;;;;;;4.47;2.78;;;;;;;13.94;51.33;98936.63;12211166;19;20006;-83
2022/04/21 19:06:29;;;;;;;5.82;2.80;;;;;;;13.87;52.42;98933.41;12212790;19;20050;-84
2022/04/21 19:10:31;;;;;;;5.17;2.80;;;;;;;13.82;53.06;98927.91;12191623;19;20027;-83
2022/04/21 19:14:33;;;;;;;5.72;3.08;;;;;;;13.72;53.67;98928.84;12197952;19;20082;-82
2022/04/21 19:18:36;;;;;;;5.53;3.20;;;;;;;13.75;52.93;98931.03;12203893;19;20014;-83
2022/04/21 19:22:38;;;;;;;4.93;2.90;;;;;;;13.77;52.38;98937.09;12201780;19;20033;-83
2022/04/21 19:26:42;;;;;;;4.95;2.75;;;;;;;13.79;52.38;98940.38;12214663;19;20819;-84
2022/04/21 19:30:45;;;;;;;6.22;3.22;;;;;;;13.74;52.87;98934.91;12213875;19;20630;-84
2022/04/21 19:34:48;;;;;;;7.40;2.92;;;;;;;13.68;54.30;98942.44;12174961;19;20006;-84
2022/04/21 19:38:50;;;;;;;5.53;3.10;;;;;;;13.61;53.92;98933.63;12206572;19;20022;-83
2022/04/21 19:42:51;;;;;;;6.85;3.08;;;;;;;13.41;55.24;98942.13;12198800;19;20014;-83
2022/04/21 19:46:53;;;;;;;5.38;3.75;;;;;;;13.15;55.48;98933.19;12190233;19;20025;-84
2022/04/21 19:50:55;;;;;;;5.07;2.92;;;;;;;12.97;55.09;98935.53;12204088;19;20342;-81
2022/04/21 19:54:56;;;;;;;5.72;3.33;;;;;;;12.75;56.19;98937.88;12200937;19;20019;-83
2022/04/21 19:58:58;;;;;;;6.10;3.13;;;;;;;12.53;56.95;98929.97;12179899;19;20013;-83
2022/04/21 20:03:00;;;;;;;4.95;2.83;;;;;;;12.39;56.97;98931.69;12213322;19;20007;-83
2022/04/21 20:11:25;;;;;;;6.38;3.13;;;;;;;12.04;58.60;98937.06;12183191;19;20015;-83
2022/04/21 20:15:26;;;;;;;10.40;3.20;;;;;;;11.91;58.67;98931.31;12198545;19;20006;-84
2022/04/21 20:23:49;;;;;;;4.70;2.80;;;;;;;11.71;58.95;98932.97;12211067;19;20823;-84
2022/04/21 20:27:51;;;;;;;5.07;2.70;;;;;;;11.57;59.42;98927.22;12206387;19;20491;-84
2022/04/21 20:31:54;;;;;;;5.35;2.75;;;;;;;11.48;60.67;98928.03;12191012;19;20006;-84